createdAt,value
2023-04-10T00:00:04.253Z,16.17
2023-04-10T00:02:31.746Z,15.20
2023-04-10T00:05:00.050Z,14.43
2023-04-10T00:07:27.849Z,15.13
2023-04-10T00:09:55.356Z,16.17
2023-04-10T00:12:22.947Z,14.90
2023-04-10T00:14:50.204Z,15.45
2023-04-10T00:17:17.500Z,16.05
2023-04-10T00:19:45.281Z,15.38
2023-04-10T00:22:12.619Z,15.32
2023-04-10T00:24:39.879Z,14.48
2023-04-10T00:27:07.060Z,16.02
2023-04-10T00:29:34.554Z,16.30
2023-04-10T00:32:01.959Z,15.60
2023-04-10T00:34:29.190Z,15.00
2023-04-10T00:37:00.102Z,16.27
2023-04-10T00:39:27.348Z,14.85
2023-04-10T00:41:54.891Z,14.07
2023-04-10T00:44:22.597Z,16.55
2023-04-10T00:46:50.063Z,16.33
2023-04-10T00:49:18.782Z,14.63
2023-04-10T00:51:46.384Z,15.43
2023-04-10T00:54:13.862Z,15.75
2023-04-10T00:56:41.533Z,16.60
2023-04-10T00:59:08.947Z,14.55
2023-04-10T01:01:36.312Z,15.65
2023-04-10T01:04:04.192Z,16.95
2023-04-10T01:06:52.322Z,14.70
2023-04-10T01:09:44.223Z,14.38
2023-04-10T01:12:48.813Z,14.25
2023-04-10T01:15:26.027Z,15.00
2023-04-10T01:18:45.785Z,15.63
2023-04-10T01:21:15.993Z,15.30
2023-04-10T01:24:08.219Z,13.73
2023-04-10T01:27:07.302Z,15.80
2023-04-10T01:29:44.528Z,13.57
2023-04-10T01:32:18.492Z,16.35
2023-04-10T01:34:50.124Z,15.40
2023-04-10T01:37:31.585Z,15.70
2023-04-10T01:40:07.146Z,14.02
2023-04-10T01:42:43.220Z,17.90
2023-04-10T01:45:18.478Z,14.95
2023-04-10T01:47:46.158Z,15.10
2023-04-10T01:50:14.478Z,14.32
2023-04-10T01:52:43.131Z,15.43
2023-04-10T01:55:11.102Z,14.20
2023-04-10T01:57:38.605Z,13.90
2023-04-10T02:00:07.936Z,15.85
2023-04-10T02:02:36.094Z,15.70
2023-04-10T02:05:03.369Z,13.50
2023-04-10T02:07:52.555Z,16.48
2023-04-10T02:10:38.443Z,14.38
2023-04-10T02:13:10.528Z,15.52
2023-04-10T02:15:41.039Z,16.15
2023-04-10T02:18:11.176Z,16.02
2023-04-10T02:20:38.508Z,16.83
2023-04-10T02:23:07.014Z,16.25
2023-04-10T02:25:35.031Z,17.38
2023-04-10T02:28:06.478Z,16.42
2023-04-10T02:30:34.510Z,17.25
2023-04-10T02:33:02.362Z,17.10
2023-04-10T02:35:29.651Z,18.85
2023-04-10T02:37:56.979Z,18.00
2023-04-10T02:40:24.624Z,16.73
2023-04-10T02:42:52.010Z,18.40
2023-04-10T02:45:19.409Z,18.88
2023-04-10T02:47:46.860Z,18.40
2023-04-10T02:50:14.410Z,18.10
2023-04-10T02:52:42.202Z,16.95
2023-04-10T02:55:09.941Z,16.60
2023-04-10T02:57:37.263Z,16.60
2023-04-10T03:00:05.725Z,15.90
2023-04-10T03:02:33.063Z,18.83
2023-04-10T03:05:02.578Z,16.60
2023-04-10T03:07:29.734Z,15.75
2023-04-10T03:09:56.898Z,17.30
2023-04-10T03:12:24.270Z,16.77
2023-04-10T03:14:51.335Z,16.80
2023-04-10T03:17:19.273Z,16.55
2023-04-10T03:19:46.600Z,16.42
2023-04-10T03:22:13.838Z,16.75
2023-04-10T03:24:41.647Z,16.25
2023-04-10T03:27:08.825Z,16.25
2023-04-10T03:29:36.067Z,15.55
2023-04-10T03:32:03.712Z,17.58
2023-04-10T03:34:30.909Z,17.88
2023-04-10T03:37:00.964Z,16.60
2023-04-10T03:39:28.134Z,17.05
2023-04-10T03:41:56.590Z,17.33
2023-04-10T03:44:24.028Z,15.95
2023-04-10T03:46:51.278Z,17.35
2023-04-10T03:49:18.557Z,16.48
2023-04-10T03:51:46.667Z,15.82
2023-04-10T03:54:14.102Z,16.45
2023-04-10T03:56:41.708Z,16.33
2023-04-10T03:59:09.050Z,16.05
2023-04-10T04:01:36.269Z,17.33
2023-04-10T04:04:03.831Z,17.92
2023-04-10T04:06:31.638Z,17.30
2023-04-10T04:08:58.794Z,15.25
2023-04-10T04:11:26.038Z,17.77
2023-04-10T04:13:53.580Z,17.17
2023-04-10T04:16:21.638Z,17.67
2023-04-10T04:18:48.794Z,17.52
2023-04-10T04:21:16.288Z,16.90
2023-04-10T04:23:43.531Z,16.88
2023-04-10T04:26:10.998Z,18.17
2023-04-10T04:28:38.216Z,17.05
2023-04-10T04:31:05.861Z,15.85
2023-04-10T04:33:36.328Z,17.83
2023-04-10T04:36:03.835Z,18.25
2023-04-10T04:38:31.064Z,18.27
2023-04-10T04:40:58.560Z,17.65
2023-04-10T04:43:26.333Z,18.02
2023-04-10T04:45:53.525Z,17.92
2023-04-10T04:48:21.037Z,16.88
2023-04-10T04:50:49.060Z,18.25
2023-04-10T04:53:16.367Z,18.52
2023-04-10T04:55:43.640Z,17.63
2023-04-10T04:58:11.079Z,18.23
2023-04-10T05:00:38.317Z,21.23
2023-04-10T05:03:07.313Z,16.92
2023-04-10T05:05:34.765Z,18.23
2023-04-10T05:08:02.169Z,18.55
2023-04-10T05:10:29.517Z,16.42
2023-04-10T05:12:56.878Z,16.65
2023-04-10T05:15:25.070Z,17.88
2023-04-10T05:17:53.390Z,18.25
2023-04-10T05:20:25.328Z,17.60
2023-04-10T05:22:53.500Z,17.40
2023-04-10T05:25:21.148Z,20.08
2023-04-10T05:27:48.365Z,17.73
2023-04-10T05:30:15.807Z,18.42
2023-04-10T05:32:43.401Z,20.58
2023-04-10T05:35:10.503Z,19.70
2023-04-10T05:37:37.914Z,22.08
2023-04-10T05:40:05.812Z,21.48
2023-04-10T05:42:33.154Z,18.73
2023-04-10T05:45:00.375Z,18.77
2023-04-10T05:47:27.574Z,19.42
2023-04-10T05:49:55.110Z,19.40
2023-04-10T05:52:25.298Z,20.13
2023-04-10T05:54:52.546Z,20.52
2023-04-10T05:57:19.765Z,18.25
2023-04-10T05:59:46.998Z,20.88
2023-04-10T06:02:14.295Z,20.95
2023-04-10T06:04:41.737Z,19.50
2023-04-10T06:07:09.175Z,21.98
2023-04-10T06:09:36.360Z,19.65
2023-04-10T06:12:03.535Z,19.73
2023-04-10T06:14:30.766Z,19.30
2023-04-10T06:17:00.655Z,21.25
2023-04-10T06:19:28.009Z,19.65
2023-04-10T06:21:55.264Z,20.77
2023-04-10T06:24:25.897Z,20.48
2023-04-10T06:26:53.207Z,18.10
2023-04-10T06:29:20.468Z,19.30
2023-04-10T06:31:47.606Z,19.98
2023-04-10T06:34:14.780Z,18.38
2023-04-10T06:36:41.907Z,19.15
2023-04-10T06:39:09.404Z,20.08
2023-04-10T06:41:36.542Z,16.05
2023-04-10T06:44:03.929Z,18.05
2023-04-10T06:46:31.074Z,19.20
2023-04-10T06:49:01.415Z,16.27
2023-04-10T06:51:28.718Z,16.95
2023-04-10T06:53:56.475Z,17.73
2023-04-10T06:56:23.676Z,18.55
2023-04-10T06:58:50.916Z,16.73
2023-04-10T07:01:18.436Z,18.13
2023-04-10T07:03:46.013Z,16.42
2023-04-10T07:06:13.777Z,18.10
2023-04-10T07:08:41.726Z,15.50
2023-04-10T07:11:08.828Z,16.73
2023-04-10T07:13:39.119Z,16.52
2023-04-10T07:16:08.545Z,15.73
2023-04-10T07:18:38.751Z,16.17
2023-04-10T07:21:14.647Z,16.45
2023-04-10T07:23:41.965Z,16.17
2023-04-10T07:26:09.342Z,18.15
2023-04-10T07:28:37.056Z,17.90
2023-04-10T07:31:04.464Z,16.38
2023-04-10T07:33:31.747Z,16.70
2023-04-10T07:35:58.974Z,17.13
2023-04-10T07:38:27.576Z,17.05
2023-04-10T07:40:58.556Z,15.95
2023-04-10T07:43:26.943Z,17.15
2023-04-10T07:45:54.262Z,16.05
2023-04-10T07:48:21.707Z,17.30
2023-04-10T07:50:49.109Z,15.48
2023-04-10T07:53:16.295Z,17.30
2023-04-10T07:55:45.249Z,15.95
2023-04-10T07:58:12.582Z,16.70
2023-04-10T08:00:39.848Z,14.25
2023-04-10T08:03:07.945Z,13.80
2023-04-10T08:05:35.320Z,17.67
2023-04-10T08:08:02.585Z,14.65
2023-04-10T08:10:29.927Z,14.63
2023-04-10T08:12:57.327Z,14.85
2023-04-10T08:15:24.528Z,14.65
2023-04-10T08:17:51.686Z,13.63
2023-04-10T08:20:18.909Z,14.63
2023-04-10T08:22:46.337Z,15.32
2023-04-10T08:25:13.581Z,15.40
2023-04-10T08:27:40.881Z,15.00
2023-04-10T08:30:08.567Z,13.82
2023-04-10T08:32:36.813Z,12.48
2023-04-10T08:35:04.328Z,13.57
2023-04-10T08:37:32.601Z,13.70
2023-04-10T08:39:59.698Z,14.10
2023-04-10T08:42:27.671Z,13.20
2023-04-10T08:44:54.959Z,12.40
2023-04-10T08:47:23.690Z,12.77
2023-04-10T08:49:58.522Z,11.77
2023-04-10T08:52:26.819Z,11.88
2023-04-10T08:54:58.813Z,11.45
2023-04-10T08:57:27.622Z,11.20
2023-04-10T08:59:54.898Z,12.73
2023-04-10T09:02:26.143Z,11.88
2023-04-10T09:04:55.542Z,10.68
2023-04-10T09:07:23.708Z,13.00
2023-04-10T09:09:51.012Z,11.15
2023-04-10T09:12:18.423Z,11.05
2023-04-10T09:14:45.779Z,9.13
2023-04-10T09:17:25.541Z,8.45
2023-04-10T09:19:55.721Z,8.32
2023-04-10T09:22:34.485Z,8.95
2023-04-10T09:25:03.351Z,7.53
2023-04-10T09:27:38.744Z,7.53
2023-04-10T09:32:43.010Z,8.82
2023-04-10T09:35:12.489Z,6.90
2023-04-10T09:37:43.360Z,8.13
2023-04-10T09:40:25.053Z,8.27
2023-04-10T09:42:56.422Z,8.80
2023-04-10T09:45:23.897Z,6.75
2023-04-10T09:48:08.828Z,7.13
2023-04-10T09:50:41.361Z,7.57
2023-04-10T09:53:17.332Z,6.55
2023-04-10T09:55:44.593Z,6.57
2023-04-10T09:58:12.233Z,5.72
2023-04-10T10:00:44.293Z,6.28
2023-04-10T10:03:17.414Z,7.85
2023-04-10T10:05:46.860Z,6.95
2023-04-10T10:08:15.652Z,6.97
2023-04-10T10:10:54.695Z,7.13
2023-04-10T10:13:32.142Z,7.50
2023-04-10T10:16:19.394Z,6.13
2023-04-10T10:18:54.901Z,6.07
2023-04-10T10:21:23.950Z,5.40
2023-04-10T10:23:54.414Z,6.10
2023-04-10T10:26:23.857Z,6.03
2023-04-10T10:28:55.303Z,6.93
2023-04-10T10:31:24.536Z,5.95
2023-04-10T10:33:53.452Z,5.57
2023-04-10T10:36:22.119Z,5.93
2023-04-10T10:39:00.303Z,6.90
2023-04-10T10:41:38.947Z,6.20
2023-04-10T10:44:21.820Z,6.20
2023-04-10T10:46:52.836Z,7.10
2023-04-10T10:49:20.125Z,4.13
2023-04-10T10:51:49.448Z,4.82
2023-04-10T10:54:42.281Z,4.85
2023-04-10T10:57:54.893Z,4.90
2023-04-10T11:00:23.976Z,5.28
2023-04-10T11:03:12.532Z,6.03
2023-04-10T11:06:12.496Z,6.18
2023-04-10T11:08:46.086Z,5.32
2023-04-10T11:11:27.666Z,5.82
2023-04-10T11:14:00.724Z,6.82
2023-04-10T11:16:32.178Z,5.53
2023-04-10T11:19:14.851Z,5.65
2023-04-10T11:22:08.735Z,5.55
2023-04-10T11:24:57.719Z,5.97
2023-04-10T11:27:47.048Z,6.07
2023-04-10T11:30:34.658Z,7.07
2023-04-10T11:33:04.081Z,4.80
2023-04-10T11:35:32.362Z,6.30
2023-04-10T11:38:16.194Z,5.65
2023-04-10T11:40:57.693Z,4.60
2023-04-10T11:43:25.007Z,4.57
2023-04-10T11:46:08.827Z,5.60
2023-04-10T11:48:37.816Z,5.10
2023-04-10T11:51:12.202Z,4.95
2023-04-10T11:53:40.462Z,4.80
2023-04-10T11:56:22.316Z,5.65
2023-04-10T11:58:54.882Z,5.32
2023-04-10T12:01:23.049Z,6.15
2023-04-10T12:03:50.840Z,4.75
2023-04-10T12:06:19.901Z,4.78
2023-04-10T12:08:51.706Z,4.43
2023-04-10T12:11:25.468Z,4.90
2023-04-10T12:13:56.668Z,4.78
2023-04-10T12:16:25.611Z,4.57
2023-04-10T12:18:53.650Z,4.22
2023-04-10T12:21:21.752Z,3.80
2023-04-10T12:23:48.922Z,3.95
2023-04-10T12:26:23.600Z,3.50
2023-04-10T12:28:56.267Z,4.63
2023-04-10T12:31:35.015Z,4.05
2023-04-10T12:34:03.572Z,4.05
2023-04-10T12:36:34.615Z,3.65
2023-04-10T12:39:04.712Z,3.50
2023-04-10T12:41:34.360Z,4.25
2023-04-10T12:44:14.765Z,3.35
2023-04-10T12:46:43.573Z,3.42
2023-04-10T12:49:14.106Z,2.45
2023-04-10T12:51:52.156Z,3.08
2023-04-10T12:54:33.673Z,2.13
2023-04-10T12:57:01.645Z,2.65
2023-04-10T12:59:30.330Z,2.38
2023-04-10T13:01:57.862Z,2.45
2023-04-10T13:04:25.989Z,2.45
2023-04-10T13:06:53.575Z,2.88
2023-04-10T13:09:21.489Z,4.45
2023-04-10T13:11:50.991Z,2.92
2023-04-10T13:14:19.128Z,2.65
2023-04-10T13:16:47.319Z,3.22
2023-04-10T13:19:15.866Z,2.67
2023-04-10T13:21:43.133Z,2.85
2023-04-10T13:24:10.616Z,2.83
2023-04-10T13:26:37.828Z,3.30
2023-04-10T13:29:07.396Z,3.67
2023-04-10T13:31:34.711Z,3.17
2023-04-10T13:34:02.181Z,3.47
2023-04-10T13:36:29.795Z,4.18
2023-04-10T13:38:57.336Z,3.88
2023-04-10T13:41:24.848Z,3.80
2023-04-10T13:43:52.184Z,3.97
2023-04-10T13:46:19.423Z,3.42
2023-04-10T13:48:47.088Z,4.35
2023-04-10T13:51:14.267Z,4.82
2023-04-10T13:53:41.592Z,3.90
2023-04-10T13:56:09.654Z,4.03
2023-04-10T13:58:36.879Z,3.50
2023-04-10T14:01:04.314Z,3.63
2023-04-10T14:03:31.494Z,4.57
2023-04-10T14:05:58.899Z,3.90
2023-04-10T14:08:26.215Z,3.53
2023-04-10T14:10:56.148Z,3.33
2023-04-10T14:13:23.345Z,2.65
2023-04-10T14:15:52.343Z,4.22
2023-04-10T14:18:20.165Z,3.17
2023-04-10T14:20:49.128Z,4.05
2023-04-10T14:23:19.371Z,4.10
2023-04-10T14:25:48.248Z,4.10
2023-04-10T14:28:20.856Z,3.58
2023-04-10T14:30:52.170Z,5.93
2023-04-10T14:33:20.157Z,4.38
2023-04-10T14:35:47.855Z,3.88
2023-04-10T14:38:16.112Z,3.88
2023-04-10T14:40:48.898Z,4.15
2023-04-10T14:43:16.358Z,4.38
2023-04-10T14:45:43.774Z,3.97
2023-04-10T14:48:12.986Z,3.80
2023-04-10T14:50:40.808Z,4.05
2023-04-10T14:53:10.168Z,4.55
2023-04-10T14:55:37.923Z,4.80
2023-04-10T14:58:07.087Z,5.15
2023-04-10T15:00:34.885Z,4.68
2023-04-10T15:03:02.306Z,5.72
2023-04-10T15:05:30.692Z,3.97
2023-04-10T15:07:58.167Z,5.07
2023-04-10T15:10:26.285Z,7.45
2023-04-10T15:12:53.674Z,4.53
2023-04-10T15:15:20.960Z,4.15
2023-04-10T15:17:48.516Z,4.35
2023-04-10T15:20:15.878Z,4.05
2023-04-10T15:22:43.665Z,4.03
2023-04-10T15:25:13.999Z,5.18
2023-04-10T15:27:42.020Z,5.07
2023-04-10T15:30:09.710Z,5.13
2023-04-10T15:32:38.777Z,6.10
2023-04-10T15:35:07.215Z,5.45
2023-04-10T15:37:36.860Z,5.57
2023-04-10T15:40:07.953Z,5.30
2023-04-10T15:42:42.129Z,6.05
2023-04-10T15:45:09.833Z,4.93
2023-04-10T15:47:39.453Z,5.60
2023-04-10T15:50:10.916Z,5.10
2023-04-10T15:52:38.083Z,5.68
2023-04-10T15:55:06.784Z,4.75
2023-04-10T16:05:35.835Z,6.22
2023-04-10T16:08:06.243Z,4.53
2023-04-10T16:10:37.670Z,5.07
2023-04-10T16:13:07.464Z,5.70
2023-04-10T16:15:36.955Z,4.65
2023-04-10T16:18:07.325Z,4.50
2023-04-10T16:20:35.234Z,5.60
2023-04-10T16:23:02.672Z,4.57
2023-04-10T16:25:30.992Z,6.07
2023-04-10T16:27:58.631Z,4.47
2023-04-10T16:30:26.213Z,5.72
2023-04-10T16:32:53.853Z,5.03
2023-04-10T16:35:22.719Z,4.53
2023-04-10T16:37:50.364Z,5.25
2023-04-10T16:40:19.109Z,5.20
2023-04-10T16:42:46.280Z,4.05
2023-04-10T16:45:14.373Z,4.35
2023-04-10T16:47:42.437Z,4.60
2023-04-10T16:50:10.113Z,4.68
2023-04-10T16:52:37.615Z,5.68
2023-04-10T16:55:05.130Z,5.93
2023-04-10T16:57:33.377Z,4.38
2023-04-10T17:00:00.985Z,5.07
2023-04-10T17:02:29.945Z,5.15
2023-04-10T17:04:57.907Z,4.78
2023-04-10T17:07:25.240Z,4.57
2023-04-10T17:09:52.592Z,4.75
2023-04-10T17:12:19.822Z,5.20
2023-04-10T17:14:47.189Z,5.78
2023-04-10T17:17:14.452Z,5.50
2023-04-10T17:19:41.886Z,4.80
2023-04-10T17:22:16.410Z,5.95
2023-04-10T17:24:46.434Z,4.97
2023-04-10T17:27:14.217Z,4.38
2023-04-10T17:29:41.748Z,5.82
2023-04-10T17:32:12.285Z,4.40
2023-04-10T17:34:42.870Z,7.03
2023-04-10T17:37:09.991Z,5.10
2023-04-10T17:39:37.615Z,5.43
2023-04-10T17:42:04.888Z,5.38
2023-04-10T17:44:32.462Z,4.57
2023-04-10T17:46:59.754Z,4.72
2023-04-10T17:49:27.476Z,4.22
2023-04-10T17:51:57.353Z,5.47
2023-04-10T17:54:24.540Z,5.85
2023-04-10T17:56:54.830Z,5.28
2023-04-10T17:59:21.966Z,5.00
2023-04-10T18:01:49.379Z,5.30
2023-04-10T18:04:16.863Z,5.93
2023-04-10T18:06:44.114Z,5.00
2023-04-10T18:09:11.798Z,12.70
2023-04-10T18:11:40.723Z,9.75
2023-04-10T18:14:08.265Z,37.65
2023-04-10T18:16:35.873Z,16.80
2023-04-10T18:19:03.466Z,7.18
2023-04-10T18:21:31.852Z,5.40
2023-04-10T18:23:59.413Z,5.78
2023-04-10T18:26:29.889Z,5.68
2023-04-10T18:29:00.905Z,4.45
2023-04-10T18:31:28.512Z,4.95
2023-04-10T18:34:07.243Z,4.85
2023-04-10T18:36:35.811Z,5.53
2023-04-10T18:39:06.320Z,4.95
2023-04-10T18:41:34.016Z,6.05
2023-04-10T18:44:05.493Z,5.68
2023-04-10T18:46:33.561Z,5.22
2023-04-10T18:49:01.543Z,4.93
2023-04-10T18:51:29.149Z,5.22
2023-04-10T18:53:56.596Z,5.57
2023-04-10T18:56:23.999Z,5.43
2023-04-10T18:58:51.149Z,6.15
2023-04-10T19:01:18.847Z,5.22
2023-04-10T19:03:52.934Z,7.18
2023-04-10T19:06:24.256Z,5.90
2023-04-10T19:08:52.143Z,11.88
2023-04-10T19:11:19.328Z,5.50
2023-04-10T19:13:46.523Z,5.50
2023-04-10T19:16:17.392Z,5.88
2023-04-10T19:18:44.816Z,5.78
2023-04-10T19:21:12.207Z,4.95
2023-04-10T19:23:39.570Z,5.28
2023-04-10T19:26:08.313Z,6.72
2023-04-10T19:28:35.540Z,6.05
2023-04-10T19:31:02.763Z,7.10
2023-04-10T19:33:30.429Z,4.97
2023-04-10T19:35:58.867Z,5.95
2023-04-10T19:38:29.416Z,6.18
2023-04-10T19:40:56.737Z,5.40
2023-04-10T19:43:24.037Z,5.45
2023-04-10T19:45:53.318Z,5.43
2023-04-10T19:48:21.048Z,5.85
2023-04-10T19:50:48.161Z,7.18
2023-04-10T19:53:15.914Z,5.85
2023-04-10T19:55:45.019Z,5.57
2023-04-10T19:58:30.470Z,5.15
2023-04-10T20:01:07.301Z,6.18
2023-04-10T20:03:36.012Z,5.90
2023-04-10T20:06:05.032Z,5.22
2023-04-10T20:08:32.235Z,6.82
2023-04-10T20:10:59.594Z,6.30
2023-04-10T20:13:26.954Z,6.93
2023-04-10T20:15:54.797Z,6.82
2023-04-10T20:18:22.108Z,5.32
2023-04-10T20:20:49.250Z,6.57
2023-04-10T20:23:16.302Z,5.53
2023-04-10T20:25:44.330Z,5.15
2023-04-10T20:28:11.989Z,9.05
2023-04-10T20:30:44.289Z,5.93
2023-04-10T20:33:12.401Z,5.88
2023-04-10T20:35:40.083Z,5.85
2023-04-10T20:38:07.449Z,6.25
2023-04-10T20:40:36.071Z,5.35
2023-04-10T20:43:03.450Z,5.97
2023-04-10T20:45:30.565Z,5.50
2023-04-10T20:47:58.126Z,4.78
2023-04-10T20:50:26.138Z,6.25
2023-04-10T20:52:53.734Z,5.13
2023-04-10T20:55:21.319Z,5.22
2023-04-10T20:57:48.473Z,6.10
2023-04-10T21:00:16.174Z,5.10
2023-04-10T21:02:43.502Z,5.18
2023-04-10T21:05:12.130Z,4.93
2023-04-10T21:07:39.651Z,5.60
2023-04-10T21:10:07.202Z,4.25
2023-04-10T21:12:34.459Z,4.85
2023-04-10T21:15:01.901Z,4.75
2023-04-10T21:17:31.635Z,4.78
2023-04-10T21:19:59.786Z,5.07
2023-04-10T21:22:29.242Z,4.47
2023-04-10T21:24:58.206Z,4.38
2023-04-10T21:27:25.378Z,4.93
2023-04-10T21:29:52.671Z,4.07
2023-04-10T21:32:20.685Z,5.15
2023-04-10T21:34:48.322Z,5.10
2023-04-10T21:37:15.541Z,4.53
2023-04-10T21:39:42.963Z,4.32
2023-04-10T21:42:10.091Z,3.80
2023-04-10T21:44:37.829Z,4.15
2023-04-10T21:47:05.041Z,4.38
2023-04-10T21:49:32.180Z,4.32
2023-04-10T21:51:59.542Z,3.60
2023-04-10T21:54:26.927Z,4.13
2023-04-10T21:56:54.075Z,4.40
2023-04-10T21:59:21.441Z,3.67
2023-04-10T22:01:49.175Z,4.15
2023-04-10T22:04:16.661Z,4.53
2023-04-10T22:06:44.089Z,3.90
2023-04-10T22:09:11.410Z,3.75
2023-04-10T22:11:39.367Z,4.10
2023-04-10T22:14:16.116Z,4.25
2023-04-10T22:16:45.516Z,3.40
2023-04-10T22:19:12.940Z,3.70
2023-04-10T22:21:40.178Z,4.47
2023-04-10T22:24:07.719Z,3.78
2023-04-10T22:26:35.698Z,4.45
2023-04-10T22:29:04.147Z,3.65
2023-04-10T22:31:32.190Z,3.88
2023-04-10T22:33:59.544Z,3.97
2023-04-10T22:36:33.891Z,4.43
2023-04-10T22:39:01.390Z,3.80
2023-04-10T22:41:29.758Z,4.43
2023-04-10T22:43:56.798Z,3.83
2023-04-10T22:46:24.116Z,3.53
2023-04-10T22:48:51.694Z,3.90
2023-04-10T22:51:19.189Z,3.83
2023-04-10T22:53:46.494Z,3.70
2023-04-10T22:56:14.032Z,5.88
2023-04-10T22:58:41.659Z,4.82
2023-04-10T23:01:10.652Z,3.65
2023-04-10T23:03:38.772Z,4.18
2023-04-10T23:06:06.259Z,4.28
2023-04-10T23:08:33.493Z,4.57
2023-04-10T23:11:00.891Z,4.28
2023-04-10T23:13:28.201Z,3.85
2023-04-10T23:15:56.567Z,3.58
2023-04-10T23:18:23.826Z,4.20
2023-04-10T23:20:51.927Z,4.15
2023-04-10T23:23:19.395Z,4.03
2023-04-10T23:25:47.780Z,3.95
2023-04-10T23:28:15.207Z,4.20
2023-04-10T23:30:43.059Z,4.15
2023-04-10T23:33:10.296Z,4.57
2023-04-10T23:35:37.441Z,3.72
2023-04-10T23:38:04.687Z,3.80
2023-04-10T23:40:32.426Z,3.75
2023-04-10T23:42:59.689Z,3.63
2023-04-10T23:45:27.276Z,6.72
2023-04-10T23:47:54.554Z,4.15
2023-04-10T23:50:21.723Z,4.32
2023-04-10T23:52:50.624Z,3.72
2023-04-10T23:55:18.760Z,2.90
2023-04-10T23:57:46.148Z,4.82
